sensor_id;sensor_type;location;lat;lon;timestamp;P1;durP1;ratioP1;P2;durP2;ratioP2
51489;SDS011;57752;53.574;9.736;2022-12-18T00:04:23;41.03;;;15.00;;
51489;SDS011;57752;53.574;9.736;2022-12-18T00:09:24;36.35;;;14.60;;
51489;SDS011;57752;53.574;9.736;2022-12-18T00:14:24;32.50;;;14.13;;
51489;SDS011;57752;53.574;9.736;2022-12-18T00:19:24;32.63;;;13.60;;
51489;SDS011;57752;53.574;9.736;2022-12-18T00:24:24;31.50;;;13.60;;
51489;SDS011;57752;53.574;9.736;2022-12-18T00:29:25;31.75;;;14.05;;
51489;SDS011;57752;53.574;9.736;2022-12-18T00:34:25;34.45;;;14.13;;
51489;SDS011;57752;53.574;9.736;2022-12-18T00:39:25;32.00;;;13.30;;
51489;SDS011;57752;53.574;9.736;2022-12-18T00:44:25;27.52;;;13.32;;
51489;SDS011;57752;53.574;9.736;2022-12-18T00:49:25;32.28;;;13.38;;
51489;SDS011;57752;53.574;9.736;2022-12-18T00:54:25;35.03;;;14.57;;
51489;SDS011;57752;53.574;9.736;2022-12-18T00:59:26;31.20;;;13.48;;
51489;SDS011;57752;53.574;9.736;2022-12-18T01:04:26;27.27;;;13.35;;
51489;SDS011;57752;53.574;9.736;2022-12-18T01:09:26;38.60;;;15.88;;
51489;SDS011;57752;53.574;9.736;2022-12-18T01:14:26;32.25;;;13.88;;
51489;SDS011;57752;53.574;9.736;2022-12-18T01:19:26;34.90;;;14.85;;
51489;SDS011;57752;53.574;9.736;2022-12-18T01:24:26;31.73;;;13.38;;
51489;SDS011;57752;53.574;9.736;2022-12-18T01:29:26;34.88;;;14.48;;
51489;SDS011;57752;53.574;9.736;2022-12-18T01:34:27;34.03;;;14.15;;
51489;SDS011;57752;53.574;9.736;2022-12-18T01:39:27;34.28;;;13.68;;
51489;SDS011;57752;53.574;9.736;2022-12-18T01:49:46;33.97;;;13.38;;
51489;SDS011;57752;53.574;9.736;2022-12-18T01:54:46;30.08;;;13.88;;
51489;SDS011;57752;53.574;9.736;2022-12-18T01:59:47;31.40;;;13.18;;
51489;SDS011;57752;53.574;9.736;2022-12-18T02:04:49;36.63;;;14.23;;
51489;SDS011;57752;53.574;9.736;2022-12-18T02:09:58;35.10;;;13.63;;
51489;SDS011;57752;53.574;9.736;2022-12-18T02:15:02;28.90;;;13.50;;
51489;SDS011;57752;53.574;9.736;2022-12-18T02:20:23;34.10;;;13.05;;
51489;SDS011;57752;53.574;9.736;2022-12-18T02:30:44;27.27;;;11.65;;
51489;SDS011;57752;53.574;9.736;2022-12-18T02:35:45;35.05;;;13.15;;
51489;SDS011;57752;53.574;9.736;2022-12-18T02:40:46;33.38;;;13.70;;
51489;SDS011;57752;53.574;9.736;2022-12-18T02:45:50;29.27;;;13.77;;
51489;SDS011;57752;53.574;9.736;2022-12-18T02:50:54;26.67;;;12.27;;
51489;SDS011;57752;53.574;9.736;2022-12-18T02:56:05;33.47;;;13.60;;
51489;SDS011;57752;53.574;9.736;2022-12-18T03:01:09;28.55;;;12.57;;
51489;SDS011;57752;53.574;9.736;2022-12-18T03:06:20;31.90;;;13.85;;
51489;SDS011;57752;53.574;9.736;2022-12-18T03:11:21;31.95;;;12.68;;
51489;SDS011;57752;53.574;9.736;2022-12-18T03:16:42;24.65;;;12.23;;
51489;SDS011;57752;53.574;9.736;2022-12-18T03:21:45;30.13;;;12.00;;
51489;SDS011;57752;53.574;9.736;2022-12-18T03:26:46;28.50;;;12.43;;
51489;SDS011;57752;53.574;9.736;2022-12-18T03:31:48;27.80;;;11.70;;
51489;SDS011;57752;53.574;9.736;2022-12-18T03:36:49;24.70;;;10.88;;
51489;SDS011;57752;53.574;9.736;2022-12-18T03:52:11;28.33;;;11.93;;
51489;SDS011;57752;53.574;9.736;2022-12-18T03:57:15;28.95;;;11.85;;
51489;SDS011;57752;53.574;9.736;2022-12-18T04:02:16;26.17;;;11.70;;
51489;SDS011;57752;53.574;9.736;2022-12-18T04:07:17;28.55;;;12.07;;
51489;SDS011;57752;53.574;9.736;2022-12-18T04:12:17;27.48;;;12.82;;
51489;SDS011;57752;53.574;9.736;2022-12-18T04:17:17;39.15;;;21.20;;
51489;SDS011;57752;53.574;9.736;2022-12-18T04:22:18;33.92;;;18.00;;
51489;SDS011;57752;53.574;9.736;2022-12-18T04:27:18;30.83;;;13.52;;
51489;SDS011;57752;53.574;9.736;2022-12-18T04:32:18;27.95;;;13.40;;
51489;SDS011;57752;53.574;9.736;2022-12-18T04:37:18;23.67;;;11.13;;
51489;SDS011;57752;53.574;9.736;2022-12-18T04:42:19;28.05;;;11.13;;
51489;SDS011;57752;53.574;9.736;2022-12-18T04:47:19;27.67;;;11.40;;
51489;SDS011;57752;53.574;9.736;2022-12-18T04:52:19;31.05;;;12.25;;
51489;SDS011;57752;53.574;9.736;2022-12-18T04:57:19;27.00;;;11.38;;
51489;SDS011;57752;53.574;9.736;2022-12-18T05:02:19;26.60;;;10.98;;
51489;SDS011;57752;53.574;9.736;2022-12-18T05:07:19;27.38;;;11.52;;
51489;SDS011;57752;53.574;9.736;2022-12-18T05:12:25;24.10;;;9.60;;
51489;SDS011;57752;53.574;9.736;2022-12-18T05:17:25;23.60;;;10.10;;
51489;SDS011;57752;53.574;9.736;2022-12-18T05:22:25;24.48;;;11.18;;
51489;SDS011;57752;53.574;9.736;2022-12-18T05:27:25;26.00;;;10.23;;
51489;SDS011;57752;53.574;9.736;2022-12-18T05:32:26;28.13;;;10.75;;
51489;SDS011;57752;53.574;9.736;2022-12-18T05:37:26;24.52;;;9.48;;
51489;SDS011;57752;53.574;9.736;2022-12-18T05:42:26;23.17;;;10.40;;
51489;SDS011;57752;53.574;9.736;2022-12-18T05:47:27;25.52;;;9.18;;
51489;SDS011;57752;53.574;9.736;2022-12-18T05:52:27;27.27;;;11.25;;
51489;SDS011;57752;53.574;9.736;2022-12-18T05:57:27;23.90;;;10.10;;
51489;SDS011;57752;53.574;9.736;2022-12-18T06:02:28;24.70;;;10.15;;
51489;SDS011;57752;53.574;9.736;2022-12-18T06:07:28;22.88;;;9.80;;
51489;SDS011;57752;53.574;9.736;2022-12-18T06:12:28;27.13;;;11.27;;
51489;SDS011;57752;53.574;9.736;2022-12-18T06:17:29;29.05;;;10.80;;
51489;SDS011;57752;53.574;9.736;2022-12-18T06:22:30;25.92;;;11.05;;
51489;SDS011;57752;53.574;9.736;2022-12-18T06:27:30;24.88;;;10.15;;
51489;SDS011;57752;53.574;9.736;2022-12-18T06:32:31;22.92;;;10.32;;
51489;SDS011;57752;53.574;9.736;2022-12-18T06:37:31;22.77;;;9.70;;
51489;SDS011;57752;53.574;9.736;2022-12-18T06:42:31;26.52;;;9.77;;
51489;SDS011;57752;53.574;9.736;2022-12-18T06:47:31;24.20;;;9.40;;
51489;SDS011;57752;53.574;9.736;2022-12-18T06:52:32;22.63;;;9.30;;
51489;SDS011;57752;53.574;9.736;2022-12-18T06:57:32;24.63;;;8.95;;
51489;SDS011;57752;53.574;9.736;2022-12-18T07:02:33;25.13;;;9.50;;
51489;SDS011;57752;53.574;9.736;2022-12-18T07:07:33;22.52;;;9.32;;
51489;SDS011;57752;53.574;9.736;2022-12-18T07:12:34;21.00;;;8.30;;
51489;SDS011;57752;53.574;9.736;2022-12-18T07:17:35;19.08;;;9.00;;
51489;SDS011;57752;53.574;9.736;2022-12-18T07:22:35;23.98;;;9.75;;
51489;SDS011;57752;53.574;9.736;2022-12-18T07:27:35;23.33;;;9.70;;
51489;SDS011;57752;53.574;9.736;2022-12-18T07:32:35;24.17;;;8.95;;
51489;SDS011;57752;53.574;9.736;2022-12-18T07:37:35;23.40;;;9.63;;
51489;SDS011;57752;53.574;9.736;2022-12-18T07:42:36;19.10;;;8.35;;
51489;SDS011;57752;53.574;9.736;2022-12-18T07:47:36;21.15;;;9.27;;
51489;SDS011;57752;53.574;9.736;2022-12-18T07:52:37;23.02;;;9.70;;
51489;SDS011;57752;53.574;9.736;2022-12-18T07:57:37;22.08;;;9.35;;
51489;SDS011;57752;53.574;9.736;2022-12-18T08:02:37;22.30;;;10.00;;
51489;SDS011;57752;53.574;9.736;2022-12-18T08:07:37;26.67;;;8.70;;
51489;SDS011;57752;53.574;9.736;2022-12-18T08:12:37;25.30;;;9.82;;
51489;SDS011;57752;53.574;9.736;2022-12-18T08:17:37;22.58;;;8.68;;
51489;SDS011;57752;53.574;9.736;2022-12-18T08:22:38;22.25;;;9.10;;
51489;SDS011;57752;53.574;9.736;2022-12-18T08:27:38;21.58;;;9.32;;
51489;SDS011;57752;53.574;9.736;2022-12-18T08:32:39;25.23;;;10.02;;
51489;SDS011;57752;53.574;9.736;2022-12-18T08:37:39;25.10;;;9.32;;
51489;SDS011;57752;53.574;9.736;2022-12-18T08:42:39;20.27;;;8.85;;
51489;SDS011;57752;53.574;9.736;2022-12-18T08:47:58;23.25;;;8.93;;
51489;SDS011;57752;53.574;9.736;2022-12-18T08:52:58;24.88;;;9.30;;
51489;SDS011;57752;53.574;9.736;2022-12-18T08:57:58;22.90;;;8.80;;
51489;SDS011;57752;53.574;9.736;2022-12-18T09:02:58;19.77;;;8.95;;
51489;SDS011;57752;53.574;9.736;2022-12-18T09:07:58;23.73;;;8.68;;
51489;SDS011;57752;53.574;9.736;2022-12-18T09:12:58;22.35;;;9.10;;
51489;SDS011;57752;53.574;9.736;2022-12-18T09:17:58;18.10;;;8.50;;
51489;SDS011;57752;53.574;9.736;2022-12-18T09:22:59;22.02;;;8.73;;
51489;SDS011;57752;53.574;9.736;2022-12-18T09:27:59;23.13;;;9.10;;
51489;SDS011;57752;53.574;9.736;2022-12-18T09:33:00;24.75;;;9.60;;
51489;SDS011;57752;53.574;9.736;2022-12-18T09:38:00;21.10;;;9.20;;
51489;SDS011;57752;53.574;9.736;2022-12-18T09:43:01;22.95;;;8.63;;
51489;SDS011;57752;53.574;9.736;2022-12-18T09:48:03;21.05;;;9.57;;
51489;SDS011;57752;53.574;9.736;2022-12-18T09:53:09;25.33;;;9.68;;
51489;SDS011;57752;53.574;9.736;2022-12-18T09:58:15;23.50;;;9.82;;
51489;SDS011;57752;53.574;9.736;2022-12-18T10:03:16;22.52;;;9.85;;
51489;SDS011;57752;53.574;9.736;2022-12-18T10:23:44;21.50;;;10.65;;
51489;SDS011;57752;53.574;9.736;2022-12-18T10:28:50;20.98;;;9.50;;
51489;SDS011;57752;53.574;9.736;2022-12-18T10:33:51;24.73;;;10.48;;
51489;SDS011;57752;53.574;9.736;2022-12-18T10:38:53;23.98;;;10.60;;
51489;SDS011;57752;53.574;9.736;2022-12-18T10:49:25;21.25;;;11.35;;
51489;SDS011;57752;53.574;9.736;2022-12-18T10:54:26;24.48;;;10.95;;
51489;SDS011;57752;53.574;9.736;2022-12-18T10:59:27;24.88;;;10.95;;
51489;SDS011;57752;53.574;9.736;2022-12-18T11:04:28;25.35;;;10.23;;
51489;SDS011;57752;53.574;9.736;2022-12-18T11:09:30;20.77;;;9.35;;
51489;SDS011;57752;53.574;9.736;2022-12-18T11:19:40;20.30;;;8.57;;
51489;SDS011;57752;53.574;9.736;2022-12-18T11:24:41;23.92;;;8.45;;
51489;SDS011;57752;53.574;9.736;2022-12-18T11:29:41;19.80;;;8.67;;
51489;SDS011;57752;53.574;9.736;2022-12-18T11:34:42;19.50;;;9.70;;
51489;SDS011;57752;53.574;9.736;2022-12-18T11:39:55;26.80;;;11.18;;
51489;SDS011;57752;53.574;9.736;2022-12-18T11:44:58;22.92;;;10.48;;
51489;SDS011;57752;53.574;9.736;2022-12-18T11:50:02;23.65;;;10.43;;
51489;SDS011;57752;53.574;9.736;2022-12-18T11:55:11;22.55;;;9.77;;
51489;SDS011;57752;53.574;9.736;2022-12-18T12:00:12;23.98;;;9.90;;
51489;SDS011;57752;53.574;9.736;2022-12-18T12:10:47;21.85;;;10.13;;
51489;SDS011;57752;53.574;9.736;2022-12-18T12:16:10;23.73;;;10.15;;
51489;SDS011;57752;53.574;9.736;2022-12-18T12:21:22;27.33;;;11.23;;
51489;SDS011;57752;53.574;9.736;2022-12-18T12:26:29;23.00;;;10.70;;
51489;SDS011;57752;53.574;9.736;2022-12-18T12:41:55;24.85;;;10.20;;
51489;SDS011;57752;53.574;9.736;2022-12-18T12:47:19;24.77;;;11.63;;
51489;SDS011;57752;53.574;9.736;2022-12-18T12:57:31;27.10;;;11.57;;
51489;SDS011;57752;53.574;9.736;2022-12-18T13:02:35;26.88;;;11.65;;
51489;SDS011;57752;53.574;9.736;2022-12-18T13:07:46;26.27;;;12.57;;
51489;SDS011;57752;53.574;9.736;2022-12-18T13:12:55;26.95;;;11.52;;
51489;SDS011;57752;53.574;9.736;2022-12-18T13:28:50;25.08;;;11.02;;
51489;SDS011;57752;53.574;9.736;2022-12-18T13:33:44;28.77;;;12.77;;
51489;SDS011;57752;53.574;9.736;2022-12-18T13:38:45;29.95;;;13.23;;
51489;SDS011;57752;53.574;9.736;2022-12-18T13:43:45;33.95;;;14.88;;
51489;SDS011;57752;53.574;9.736;2022-12-18T13:48:50;30.33;;;15.00;;
51489;SDS011;57752;53.574;9.736;2022-12-18T13:53:52;31.52;;;14.80;;
51489;SDS011;57752;53.574;9.736;2022-12-18T13:59:03;35.90;;;14.95;;
51489;SDS011;57752;53.574;9.736;2022-12-18T14:04:49;31.15;;;14.45;;
51489;SDS011;57752;53.574;9.736;2022-12-18T14:09:28;42.17;;;16.60;;
51489;SDS011;57752;53.574;9.736;2022-12-18T14:14:29;30.88;;;14.20;;
51489;SDS011;57752;53.574;9.736;2022-12-18T14:19:29;31.80;;;14.95;;
51489;SDS011;57752;53.574;9.736;2022-12-18T14:24:31;37.15;;;16.05;;
51489;SDS011;57752;53.574;9.736;2022-12-18T14:29:31;32.13;;;15.45;;
51489;SDS011;57752;53.574;9.736;2022-12-18T14:34:31;35.67;;;15.60;;
51489;SDS011;57752;53.574;9.736;2022-12-18T14:39:31;41.15;;;17.48;;
51489;SDS011;57752;53.574;9.736;2022-12-18T14:44:31;40.35;;;17.45;;
51489;SDS011;57752;53.574;9.736;2022-12-18T14:49:32;43.17;;;17.98;;
51489;SDS011;57752;53.574;9.736;2022-12-18T14:54:33;44.95;;;17.92;;
51489;SDS011;57752;53.574;9.736;2022-12-18T14:59:35;40.38;;;16.95;;
51489;SDS011;57752;53.574;9.736;2022-12-18T15:04:36;44.33;;;17.98;;
51489;SDS011;57752;53.574;9.736;2022-12-18T15:09:37;51.83;;;18.85;;
51489;SDS011;57752;53.574;9.736;2022-12-18T15:14:41;43.35;;;17.00;;
51489;SDS011;57752;53.574;9.736;2022-12-18T15:19:42;44.33;;;17.27;;
51489;SDS011;57752;53.574;9.736;2022-12-18T15:24:43;44.38;;;18.63;;
51489;SDS011;57752;53.574;9.736;2022-12-18T15:29:43;45.53;;;17.27;;
51489;SDS011;57752;53.574;9.736;2022-12-18T15:34:43;45.63;;;18.90;;
51489;SDS011;57752;53.574;9.736;2022-12-18T15:39:43;47.33;;;18.55;;
51489;SDS011;57752;53.574;9.736;2022-12-18T15:44:43;51.00;;;20.23;;
51489;SDS011;57752;53.574;9.736;2022-12-18T15:49:43;48.85;;;19.45;;
51489;SDS011;57752;53.574;9.736;2022-12-18T15:54:44;46.45;;;18.80;;
51489;SDS011;57752;53.574;9.736;2022-12-18T16:00:02;47.92;;;19.55;;
51489;SDS011;57752;53.574;9.736;2022-12-18T16:05:03;54.08;;;19.25;;
51489;SDS011;57752;53.574;9.736;2022-12-18T16:10:04;54.20;;;21.70;;
51489;SDS011;57752;53.574;9.736;2022-12-18T16:15:05;50.13;;;21.40;;
51489;SDS011;57752;53.574;9.736;2022-12-18T16:20:07;52.10;;;19.50;;
51489;SDS011;57752;53.574;9.736;2022-12-18T16:25:15;55.92;;;20.42;;
51489;SDS011;57752;53.574;9.736;2022-12-18T16:30:17;53.85;;;22.00;;
51489;SDS011;57752;53.574;9.736;2022-12-18T16:35:17;48.42;;;20.10;;
51489;SDS011;57752;53.574;9.736;2022-12-18T16:40:18;48.72;;;19.95;;
51489;SDS011;57752;53.574;9.736;2022-12-18T16:45:18;49.30;;;20.35;;
51489;SDS011;57752;53.574;9.736;2022-12-18T16:50:18;46.97;;;19.05;;
51489;SDS011;57752;53.574;9.736;2022-12-18T16:55:18;56.47;;;21.00;;
51489;SDS011;57752;53.574;9.736;2022-12-18T17:00:18;54.47;;;20.30;;
51489;SDS011;57752;53.574;9.736;2022-12-18T17:05:19;50.83;;;20.08;;
51489;SDS011;57752;53.574;9.736;2022-12-18T17:10:19;53.58;;;20.15;;
51489;SDS011;57752;53.574;9.736;2022-12-18T17:15:19;46.50;;;18.80;;
51489;SDS011;57752;53.574;9.736;2022-12-18T17:20:19;46.63;;;19.90;;
51489;SDS011;57752;53.574;9.736;2022-12-18T17:25:19;40.78;;;18.85;;
51489;SDS011;57752;53.574;9.736;2022-12-18T17:30:19;50.50;;;20.27;;
51489;SDS011;57752;53.574;9.736;2022-12-18T17:35:19;50.72;;;20.52;;
51489;SDS011;57752;53.574;9.736;2022-12-18T17:40:20;50.85;;;20.05;;
51489;SDS011;57752;53.574;9.736;2022-12-18T17:45:20;49.92;;;21.25;;
51489;SDS011;57752;53.574;9.736;2022-12-18T17:50:20;52.03;;;20.52;;
51489;SDS011;57752;53.574;9.736;2022-12-18T17:55:20;45.50;;;18.38;;
51489;SDS011;57752;53.574;9.736;2022-12-18T18:00:20;51.85;;;19.23;;
51489;SDS011;57752;53.574;9.736;2022-12-18T18:05:20;46.47;;;18.60;;
51489;SDS011;57752;53.574;9.736;2022-12-18T18:10:21;49.13;;;18.48;;
51489;SDS011;57752;53.574;9.736;2022-12-18T18:15:21;42.05;;;19.15;;
51489;SDS011;57752;53.574;9.736;2022-12-18T18:20:21;43.70;;;17.73;;
51489;SDS011;57752;53.574;9.736;2022-12-18T18:25:21;46.60;;;19.65;;
51489;SDS011;57752;53.574;9.736;2022-12-18T18:30:21;40.85;;;17.92;;
51489;SDS011;57752;53.574;9.736;2022-12-18T18:35:21;47.83;;;17.67;;
51489;SDS011;57752;53.574;9.736;2022-12-18T18:40:22;36.83;;;17.25;;
51489;SDS011;57752;53.574;9.736;2022-12-18T18:45:22;40.50;;;16.42;;
51489;SDS011;57752;53.574;9.736;2022-12-18T18:50:22;40.53;;;17.48;;
51489;SDS011;57752;53.574;9.736;2022-12-18T18:55:22;36.92;;;15.95;;
51489;SDS011;57752;53.574;9.736;2022-12-18T19:00:22;37.67;;;15.80;;
51489;SDS011;57752;53.574;9.736;2022-12-18T19:05:23;36.45;;;16.55;;
51489;SDS011;57752;53.574;9.736;2022-12-18T19:10:23;34.90;;;15.23;;
51489;SDS011;57752;53.574;9.736;2022-12-18T19:15:23;34.83;;;15.10;;
51489;SDS011;57752;53.574;9.736;2022-12-18T19:20:23;34.90;;;15.48;;
51489;SDS011;57752;53.574;9.736;2022-12-18T19:25:24;35.67;;;14.57;;
51489;SDS011;57752;53.574;9.736;2022-12-18T19:30:24;31.80;;;15.38;;
51489;SDS011;57752;53.574;9.736;2022-12-18T19:35:24;34.22;;;14.40;;
51489;SDS011;57752;53.574;9.736;2022-12-18T19:40:24;30.17;;;14.68;;
51489;SDS011;57752;53.574;9.736;2022-12-18T19:45:24;33.53;;;14.88;;
51489;SDS011;57752;53.574;9.736;2022-12-18T19:50:24;33.67;;;14.73;;
51489;SDS011;57752;53.574;9.736;2022-12-18T19:55:25;28.60;;;13.02;;
51489;SDS011;57752;53.574;9.736;2022-12-18T20:00:25;30.00;;;13.02;;
51489;SDS011;57752;53.574;9.736;2022-12-18T20:05:25;30.83;;;13.10;;
51489;SDS011;57752;53.574;9.736;2022-12-18T20:10:25;32.47;;;13.40;;
51489;SDS011;57752;53.574;9.736;2022-12-18T20:15:25;33.15;;;13.52;;
51489;SDS011;57752;53.574;9.736;2022-12-18T20:20:25;36.40;;;13.85;;
51489;SDS011;57752;53.574;9.736;2022-12-18T20:25:26;31.13;;;13.70;;
51489;SDS011;57752;53.574;9.736;2022-12-18T20:30:26;32.97;;;12.63;;
51489;SDS011;57752;53.574;9.736;2022-12-18T20:35:27;33.72;;;13.15;;
51489;SDS011;57752;53.574;9.736;2022-12-18T20:40:29;33.13;;;13.18;;
51489;SDS011;57752;53.574;9.736;2022-12-18T20:45:30;29.40;;;12.13;;
51489;SDS011;57752;53.574;9.736;2022-12-18T20:50:30;38.78;;;14.02;;
51489;SDS011;57752;53.574;9.736;2022-12-18T20:55:30;32.08;;;13.20;;
51489;SDS011;57752;53.574;9.736;2022-12-18T21:00:30;32.05;;;13.70;;
51489;SDS011;57752;53.574;9.736;2022-12-18T21:05:30;33.40;;;14.20;;
51489;SDS011;57752;53.574;9.736;2022-12-18T21:10:30;35.55;;;14.77;;
51489;SDS011;57752;53.574;9.736;2022-12-18T21:15:31;35.60;;;14.30;;
51489;SDS011;57752;53.574;9.736;2022-12-18T21:20:31;36.20;;;14.15;;
51489;SDS011;57752;53.574;9.736;2022-12-18T21:25:31;35.92;;;14.40;;
51489;SDS011;57752;53.574;9.736;2022-12-18T21:30:31;34.92;;;13.05;;
51489;SDS011;57752;53.574;9.736;2022-12-18T21:35:31;34.97;;;14.48;;
51489;SDS011;57752;53.574;9.736;2022-12-18T21:40:31;32.47;;;14.93;;
51489;SDS011;57752;53.574;9.736;2022-12-18T21:45:31;33.20;;;13.98;;
51489;SDS011;57752;53.574;9.736;2022-12-18T21:50:32;29.70;;;13.73;;
51489;SDS011;57752;53.574;9.736;2022-12-18T21:55:32;32.00;;;14.98;;
51489;SDS011;57752;53.574;9.736;2022-12-18T22:00:32;36.50;;;13.77;;
51489;SDS011;57752;53.574;9.736;2022-12-18T22:05:32;33.92;;;13.02;;
51489;SDS011;57752;53.574;9.736;2022-12-18T22:10:33;31.35;;;14.25;;
51489;SDS011;57752;53.574;9.736;2022-12-18T22:15:33;34.38;;;13.50;;
51489;SDS011;57752;53.574;9.736;2022-12-18T22:20:33;32.05;;;13.65;;
51489;SDS011;57752;53.574;9.736;2022-12-18T22:25:34;35.70;;;14.50;;
51489;SDS011;57752;53.574;9.736;2022-12-18T22:30:34;33.28;;;13.52;;
51489;SDS011;57752;53.574;9.736;2022-12-18T22:35:34;31.70;;;13.00;;
51489;SDS011;57752;53.574;9.736;2022-12-18T22:40:34;33.30;;;14.30;;
51489;SDS011;57752;53.574;9.736;2022-12-18T22:45:34;32.50;;;13.25;;
51489;SDS011;57752;53.574;9.736;2022-12-18T22:50:35;36.80;;;13.30;;
51489;SDS011;57752;53.574;9.736;2022-12-18T22:55:35;36.50;;;14.52;;
51489;SDS011;57752;53.574;9.736;2022-12-18T23:00:35;31.42;;;14.55;;
51489;SDS011;57752;53.574;9.736;2022-12-18T23:05:35;32.17;;;15.10;;
51489;SDS011;57752;53.574;9.736;2022-12-18T23:10:36;31.30;;;13.67;;
51489;SDS011;57752;53.574;9.736;2022-12-18T23:15:40;33.70;;;13.20;;
51489;SDS011;57752;53.574;9.736;2022-12-18T23:20:40;35.58;;;15.02;;
51489;SDS011;57752;53.574;9.736;2022-12-18T23:25:40;34.67;;;15.00;;
51489;SDS011;57752;53.574;9.736;2022-12-18T23:30:40;31.80;;;14.65;;
51489;SDS011;57752;53.574;9.736;2022-12-18T23:35:41;31.20;;;14.68;;
51489;SDS011;57752;53.574;9.736;2022-12-18T23:40:41;35.13;;;15.20;;
51489;SDS011;57752;53.574;9.736;2022-12-18T23:45:41;33.10;;;13.93;;
51489;SDS011;57752;53.574;9.736;2022-12-18T23:50:41;34.90;;;14.35;;
51489;SDS011;57752;53.574;9.736;2022-12-18T23:55:42;32.85;;;13.98;;
